createdAt,value
2024-02-29T00:02:22.590Z,22.74
2024-02-29T00:04:49.765Z,22.69
2024-02-29T00:07:18.318Z,22.72
2024-02-29T00:09:45.517Z,22.73
2024-02-29T00:12:12.736Z,22.71
2024-02-29T00:14:40.047Z,22.66
2024-02-29T00:17:07.262Z,22.64
2024-02-29T00:19:34.546Z,22.59
2024-02-29T00:22:01.765Z,22.37
2024-02-29T00:24:30.338Z,22.57
2024-02-29T00:26:57.542Z,22.58
2024-02-29T00:29:24.729Z,22.59
2024-02-29T00:31:52.004Z,22.58
2024-02-29T00:34:19.283Z,22.58
2024-02-29T00:36:46.550Z,22.62
2024-02-29T00:39:15.339Z,22.61
2024-02-29T00:41:44.215Z,22.64
2024-02-29T00:44:11.412Z,22.66
2024-02-29T00:46:38.617Z,22.65
2024-02-29T00:49:06.171Z,22.66
2024-02-29T00:51:33.721Z,22.66
2024-02-29T00:54:00.879Z,22.65
2024-02-29T00:56:28.090Z,22.63
2024-02-29T00:58:56.633Z,22.64
2024-02-29T01:01:23.960Z,22.63
2024-02-29T01:03:51.230Z,22.62
2024-02-29T01:06:18.565Z,22.60
2024-02-29T01:08:45.735Z,22.61
2024-02-29T01:11:13.159Z,22.60
2024-02-29T01:13:40.377Z,22.53
2024-02-29T01:16:08.987Z,22.51
2024-02-29T01:18:36.248Z,22.49
2024-02-29T01:21:03.727Z,22.47
2024-02-29T01:23:30.899Z,22.46
2024-02-29T01:25:58.066Z,22.48
2024-02-29T01:28:25.243Z,22.49
2024-02-29T01:30:52.422Z,22.47
2024-02-29T01:33:20.997Z,22.49
2024-02-29T01:35:48.241Z,22.55
2024-02-29T01:38:15.430Z,22.56
2024-02-29T01:40:45.494Z,22.45
2024-02-29T01:43:12.821Z,22.54
2024-02-29T01:45:40.091Z,22.55
2024-02-29T01:48:09.158Z,22.55
2024-02-29T01:50:39.325Z,22.48
2024-02-29T01:53:06.784Z,22.50
2024-02-29T01:55:34.007Z,22.56
2024-02-29T01:58:02.395Z,22.53
2024-02-29T02:00:29.601Z,22.53
2024-02-29T02:03:17.375Z,22.42
2024-02-29T02:05:46.169Z,22.51
2024-02-29T02:08:14.265Z,22.50
2024-02-29T02:10:41.424Z,22.45
2024-02-29T02:13:08.584Z,22.38
2024-02-29T02:15:35.908Z,22.40
2024-02-29T02:18:03.167Z,22.40
2024-02-29T02:20:31.680Z,22.40
2024-02-29T02:22:58.867Z,22.38
2024-02-29T02:25:26.063Z,22.33
2024-02-29T02:27:53.279Z,22.38
2024-02-29T02:30:20.430Z,22.36
2024-02-29T02:32:47.693Z,22.44
2024-02-29T02:35:14.885Z,22.47
2024-02-29T02:37:43.454Z,22.48
2024-02-29T02:40:11.446Z,22.46
2024-02-29T02:42:38.810Z,22.48
2024-02-29T02:45:07.038Z,22.46
2024-02-29T02:47:34.285Z,22.47
2024-02-29T02:50:01.625Z,22.46
2024-02-29T02:52:28.782Z,22.46
2024-02-29T02:54:57.331Z,22.45
2024-02-29T02:57:24.512Z,22.43
2024-02-29T02:59:51.637Z,22.39
2024-02-29T03:02:18.915Z,22.39
2024-02-29T03:04:46.124Z,22.44
2024-02-29T03:07:13.332Z,22.40
2024-02-29T03:09:40.723Z,22.34
2024-02-29T03:12:10.040Z,22.33
2024-02-29T03:14:37.181Z,22.35
2024-02-29T03:17:04.364Z,22.34
2024-02-29T03:19:31.592Z,22.34
2024-02-29T03:21:58.776Z,22.35
2024-02-29T03:24:26.017Z,22.36
2024-02-29T03:26:53.133Z,22.37
2024-02-29T03:29:22.083Z,22.40
2024-02-29T03:31:49.293Z,22.53
2024-02-29T03:34:16.845Z,22.61
2024-02-29T03:36:44.170Z,22.92
2024-02-29T03:39:11.384Z,23.13
2024-02-29T03:41:38.540Z,23.28
2024-02-29T03:44:05.817Z,23.35
2024-02-29T03:46:34.390Z,23.39
2024-02-29T03:49:01.597Z,23.43
2024-02-29T03:51:28.795Z,23.44
2024-02-29T03:53:55.973Z,23.36
2024-02-29T03:56:23.323Z,23.35
2024-02-29T03:58:50.500Z,23.32
2024-02-29T04:01:17.853Z,23.31
2024-02-29T04:03:46.417Z,23.28
2024-02-29T04:06:13.602Z,23.22
2024-02-29T04:08:40.849Z,23.11
2024-02-29T04:11:08.218Z,23.09
2024-02-29T04:13:35.371Z,23.09
2024-02-29T04:16:02.622Z,23.11
2024-02-29T04:18:29.830Z,23.11
2024-02-29T04:20:58.381Z,23.06
2024-02-29T04:23:25.586Z,23.10
2024-02-29T04:25:52.701Z,23.12
2024-02-29T04:28:19.910Z,23.09
2024-02-29T04:30:47.151Z,23.06
2024-02-29T04:33:14.454Z,23.03
2024-02-29T04:35:41.665Z,23.03
2024-02-29T04:38:10.183Z,23.04
2024-02-29T04:40:37.350Z,22.97
2024-02-29T04:43:04.936Z,22.94
2024-02-29T04:45:32.185Z,22.92
2024-02-29T04:47:59.397Z,22.81
2024-02-29T04:50:26.582Z,22.92
2024-02-29T04:52:53.776Z,22.88
2024-02-29T04:55:22.288Z,22.84
2024-02-29T04:57:49.506Z,22.83
2024-02-29T05:00:17.627Z,22.78
2024-02-29T05:02:44.776Z,22.72
2024-02-29T05:05:12.978Z,22.64
2024-02-29T05:07:40.317Z,22.66
2024-02-29T05:10:08.654Z,22.63
2024-02-29T05:12:37.458Z,22.64
2024-02-29T05:15:05.577Z,22.63
2024-02-29T05:17:32.765Z,22.63
2024-02-29T05:19:59.946Z,22.60
2024-02-29T05:22:27.181Z,22.63
2024-02-29T05:24:54.403Z,22.65
2024-02-29T05:27:21.614Z,22.65
2024-02-29T05:29:50.588Z,22.67
2024-02-29T05:32:18.805Z,22.58
2024-02-29T05:34:46.428Z,22.64
2024-02-29T05:37:13.800Z,22.62
2024-02-29T05:39:41.962Z,22.60
2024-02-29T05:42:09.192Z,22.59
2024-02-29T05:44:36.373Z,22.57
2024-02-29T05:47:05.051Z,22.54
2024-02-29T05:49:32.235Z,22.58
2024-02-29T05:51:59.585Z,22.56
2024-02-29T05:54:26.836Z,22.53
2024-02-29T05:56:54.927Z,22.47
2024-02-29T05:59:22.172Z,22.44
2024-02-29T06:01:49.554Z,22.43
2024-02-29T06:04:18.229Z,22.42
2024-02-29T06:06:45.552Z,22.44
2024-02-29T06:09:12.729Z,22.42
2024-02-29T06:11:39.905Z,22.42
2024-02-29T06:14:07.156Z,22.41
2024-02-29T06:16:34.407Z,22.44
2024-02-29T06:19:01.764Z,22.47
2024-02-29T06:21:30.306Z,22.50
2024-02-29T06:23:57.423Z,22.50
2024-02-29T06:26:24.590Z,22.47
2024-02-29T06:28:51.779Z,22.49
2024-02-29T06:31:19.320Z,22.38
2024-02-29T06:33:46.552Z,22.45
2024-02-29T06:36:13.814Z,22.42
2024-02-29T06:38:42.395Z,22.41
2024-02-29T06:41:10.185Z,22.44
2024-02-29T06:43:37.409Z,22.39
2024-02-29T06:46:04.914Z,22.41
2024-02-29T06:48:32.309Z,22.39
2024-02-29T06:50:59.510Z,22.42
2024-02-29T06:53:26.666Z,22.37
2024-02-29T06:55:55.211Z,22.33
2024-02-29T06:58:22.593Z,22.29
2024-02-29T07:00:50.059Z,22.34
2024-02-29T07:03:17.339Z,22.31
2024-02-29T07:05:45.009Z,22.34
2024-02-29T07:08:12.163Z,22.32
2024-02-29T07:10:39.315Z,22.34
2024-02-29T07:13:07.904Z,22.35
2024-02-29T07:15:35.264Z,22.36
2024-02-29T07:18:02.692Z,22.35
2024-02-29T07:20:29.968Z,22.38
2024-02-29T07:22:57.621Z,22.30
2024-02-29T07:25:24.830Z,22.37
2024-02-29T07:27:52.090Z,22.33
2024-02-29T07:30:20.917Z,22.36
2024-02-29T07:32:48.271Z,22.34
2024-02-29T07:35:15.729Z,22.35
2024-02-29T07:37:42.900Z,22.25
2024-02-29T07:40:10.495Z,22.32
2024-02-29T07:42:38.280Z,22.31
2024-02-29T07:45:07.516Z,22.31
2024-02-29T07:47:36.256Z,22.32
2024-02-29T07:50:03.827Z,22.29
2024-02-29T07:52:30.987Z,22.23
2024-02-29T07:54:58.183Z,22.22
2024-02-29T07:57:25.371Z,22.22
2024-02-29T07:59:52.575Z,22.23
2024-02-29T08:02:21.186Z,22.20
2024-02-29T08:04:51.294Z,22.24
2024-02-29T08:07:18.642Z,22.24
2024-02-29T08:09:45.974Z,22.27
2024-02-29T08:12:13.217Z,22.26
2024-02-29T08:14:40.352Z,22.29
2024-02-29T08:17:07.478Z,22.29
2024-02-29T08:19:34.660Z,22.30
2024-02-29T08:22:03.518Z,22.26
2024-02-29T08:24:31.148Z,22.30
2024-02-29T08:26:58.347Z,22.16
2024-02-29T08:29:25.556Z,22.27
2024-02-29T08:31:52.755Z,22.26
2024-02-29T08:34:20.076Z,22.26
2024-02-29T08:36:47.260Z,22.25
2024-02-29T08:39:16.256Z,22.15
2024-02-29T08:41:43.463Z,22.23
2024-02-29T08:44:10.663Z,22.23
2024-02-29T08:46:37.811Z,22.23
2024-02-29T08:49:05.091Z,22.16
2024-02-29T08:51:32.271Z,22.15
2024-02-29T08:53:59.461Z,22.14
2024-02-29T08:56:28.279Z,22.12
2024-02-29T08:58:55.702Z,22.02
2024-02-29T09:01:22.957Z,22.16
2024-02-29T09:03:50.333Z,22.17
2024-02-29T09:06:17.496Z,22.17
2024-02-29T09:08:44.647Z,22.22
2024-02-29T09:11:11.912Z,22.23
2024-02-29T09:13:40.527Z,22.21
2024-02-29T09:16:07.909Z,22.25
2024-02-29T09:18:35.229Z,22.23
2024-02-29T09:21:02.414Z,22.22
2024-02-29T09:23:30.183Z,22.22
2024-02-29T09:25:57.391Z,22.21
2024-02-29T09:28:24.582Z,22.22
2024-02-29T09:30:53.243Z,22.20
2024-02-29T09:40:46.413Z,22.21
2024-02-29T09:43:20.123Z,22.17
2024-02-29T09:45:49.376Z,22.12
2024-02-29T09:48:18.094Z,22.10
2024-02-29T09:50:45.256Z,22.11
2024-02-29T09:53:16.102Z,22.06
2024-02-29T09:55:44.088Z,22.08
2024-02-29T09:58:11.893Z,22.07
2024-02-29T10:00:39.212Z,22.11
2024-02-29T10:03:07.719Z,22.08
2024-02-29T10:05:36.232Z,22.16
2024-02-29T10:08:06.754Z,22.16
2024-02-29T10:10:34.237Z,22.17
2024-02-29T10:13:01.536Z,22.21
2024-02-29T10:15:29.618Z,22.12
2024-02-29T10:20:23.857Z,22.16
2024-02-29T10:22:52.444Z,22.17
2024-02-29T10:25:20.771Z,22.01
2024-02-29T10:27:48.578Z,22.16
2024-02-29T10:30:17.336Z,22.18
2024-02-29T10:32:45.803Z,22.18
2024-02-29T10:35:19.868Z,22.16
2024-02-29T10:37:48.386Z,22.16
2024-02-29T10:40:17.131Z,21.97
2024-02-29T10:42:44.500Z,22.09
2024-02-29T10:45:13.696Z,22.03
2024-02-29T10:47:46.665Z,21.98
2024-02-29T10:50:18.751Z,22.01
2024-02-29T10:52:49.665Z,22.01
2024-02-29T10:55:23.873Z,22.06
2024-02-29T10:57:54.458Z,22.04
2024-02-29T11:00:21.692Z,22.09
2024-02-29T11:02:49.423Z,22.11
2024-02-29T11:05:17.797Z,22.12
2024-02-29T11:07:45.641Z,22.12
2024-02-29T11:10:13.553Z,22.14
2024-02-29T11:12:42.156Z,22.12
2024-02-29T11:15:11.678Z,22.15
2024-02-29T11:17:39.339Z,22.15
2024-02-29T11:20:07.140Z,22.14
2024-02-29T11:22:35.915Z,22.14
2024-02-29T11:25:06.800Z,22.14
2024-02-29T11:27:34.908Z,22.13
2024-02-29T11:30:04.904Z,22.11
2024-02-29T11:32:32.213Z,22.11
2024-02-29T11:34:59.498Z,22.11
2024-02-29T11:37:32.464Z,22.15
2024-02-29T11:40:02.058Z,22.05
2024-02-29T11:42:29.345Z,22.02
2024-02-29T11:44:56.584Z,22.02
2024-02-29T11:47:25.157Z,22.01
2024-02-29T11:49:52.354Z,22.02
2024-02-29T11:52:19.800Z,22.01
2024-02-29T11:54:47.383Z,22.02
2024-02-29T11:57:14.631Z,22.04
2024-02-29T11:59:41.804Z,22.06
2024-02-29T12:02:09.527Z,22.08
2024-02-29T12:04:38.079Z,21.98
2024-02-29T12:07:07.166Z,22.12
2024-02-29T12:09:34.580Z,22.11
2024-02-29T12:12:02.094Z,22.10
2024-02-29T12:14:29.595Z,21.89
2024-02-29T12:16:56.915Z,22.12
2024-02-29T12:19:24.178Z,22.11
2024-02-29T12:21:55.581Z,22.12
2024-02-29T12:24:23.183Z,22.11
2024-02-29T12:26:50.753Z,22.10
2024-02-29T12:29:18.022Z,22.08
2024-02-29T12:31:45.664Z,22.11
2024-02-29T12:34:12.903Z,22.09
2024-02-29T12:36:40.217Z,22.05
2024-02-29T12:39:08.800Z,22.00
2024-02-29T12:41:38.189Z,21.96
2024-02-29T12:44:05.664Z,21.98
2024-02-29T12:46:32.940Z,21.96
2024-02-29T12:49:00.138Z,21.92
2024-02-29T12:51:27.291Z,21.97
2024-02-29T12:53:54.522Z,21.89
2024-02-29T12:56:23.349Z,21.91
2024-02-29T12:58:50.515Z,21.92
2024-02-29T13:01:17.938Z,22.03
2024-02-29T13:03:46.791Z,22.07
2024-02-29T13:06:14.067Z,22.04
2024-02-29T13:08:41.284Z,22.03
2024-02-29T13:11:08.491Z,22.05
2024-02-29T13:13:37.040Z,21.95
2024-02-29T13:16:05.033Z,22.03
2024-02-29T13:18:32.367Z,22.03
2024-02-29T13:21:01.311Z,22.05
2024-02-29T13:23:29.641Z,21.96
2024-02-29T13:25:57.017Z,22.02
2024-02-29T13:28:24.482Z,22.01
2024-02-29T13:30:53.098Z,22.01
2024-02-29T13:33:20.342Z,22.02
2024-02-29T13:35:47.622Z,21.94
2024-02-29T13:38:14.913Z,21.92
2024-02-29T13:40:42.080Z,21.93
2024-02-29T13:43:09.342Z,21.91
2024-02-29T13:45:37.722Z,21.94
2024-02-29T13:48:07.126Z,21.92
2024-02-29T13:50:34.373Z,21.90
2024-02-29T13:53:01.584Z,21.94
2024-02-29T13:55:28.840Z,21.94
2024-02-29T13:57:56.382Z,21.88
2024-02-29T14:00:23.630Z,22.00
2024-02-29T14:02:50.925Z,22.01
2024-02-29T14:05:19.465Z,21.99
2024-02-29T14:07:48.983Z,22.01
2024-02-29T14:10:16.823Z,21.99
2024-02-29T14:12:44.156Z,22.02
2024-02-29T14:15:11.392Z,22.01
2024-02-29T14:17:39.559Z,21.98
2024-02-29T14:20:07.824Z,22.00
2024-02-29T14:22:36.419Z,21.99
2024-02-29T14:25:04.169Z,21.97
2024-02-29T14:27:31.570Z,21.96
2024-02-29T14:29:58.762Z,22.00
2024-02-29T14:32:25.957Z,21.84
2024-02-29T14:34:53.148Z,21.93
2024-02-29T14:37:20.601Z,21.83
2024-02-29T14:39:49.286Z,21.91
2024-02-29T14:42:16.525Z,21.90
2024-02-29T14:44:43.725Z,21.91
2024-02-29T14:47:10.933Z,21.90
2024-02-29T14:49:38.182Z,21.91
2024-02-29T14:52:05.409Z,21.94
2024-02-29T14:54:32.684Z,21.96
2024-02-29T14:57:01.711Z,21.97
2024-02-29T14:59:28.963Z,21.97
2024-02-29T15:01:56.330Z,21.97
2024-02-29T15:04:23.628Z,21.97
2024-02-29T15:06:51.025Z,22.03
2024-02-29T15:09:18.356Z,22.06
2024-02-29T15:11:45.657Z,22.09
2024-02-29T15:14:14.330Z,22.11
2024-02-29T15:16:41.565Z,22.10
2024-02-29T15:19:08.835Z,22.11
2024-02-29T15:21:36.109Z,22.14
2024-02-29T15:24:03.453Z,22.10
2024-02-29T15:26:30.645Z,22.12
2024-02-29T15:28:57.819Z,22.13
2024-02-29T15:31:26.509Z,22.05
2024-02-29T15:33:53.685Z,22.05
2024-02-29T15:36:20.998Z,22.07
2024-02-29T15:38:48.201Z,22.06
2024-02-29T15:41:15.500Z,22.07
2024-02-29T15:43:42.712Z,22.05
2024-02-29T15:46:10.040Z,22.04
2024-02-29T15:48:38.629Z,22.07
2024-02-29T15:51:06.020Z,22.13
2024-02-29T15:53:33.527Z,22.13
2024-02-29T15:56:02.660Z,22.12
2024-02-29T15:58:32.238Z,22.10
2024-02-29T16:00:59.508Z,22.08
2024-02-29T16:03:26.714Z,22.06
2024-02-29T16:05:55.289Z,22.10
2024-02-29T16:08:22.477Z,22.07
2024-02-29T16:10:49.709Z,22.06
2024-02-29T16:13:17.445Z,22.07
2024-02-29T16:15:44.820Z,22.25
2024-02-29T16:18:12.082Z,22.55
2024-02-29T16:20:39.277Z,23.02
2024-02-29T16:23:07.792Z,23.42
2024-02-29T16:25:35.161Z,23.74
2024-02-29T16:28:02.844Z,23.89
2024-02-29T16:30:30.033Z,23.91
2024-02-29T16:32:57.501Z,23.92
2024-02-29T16:35:25.066Z,23.84
2024-02-29T16:37:52.390Z,23.79
2024-02-29T16:40:20.996Z,23.73
2024-02-29T16:42:48.297Z,23.76
2024-02-29T16:45:15.599Z,23.74
2024-02-29T16:47:43.402Z,23.74
2024-02-29T16:50:10.826Z,23.66
2024-02-29T16:52:38.044Z,23.63
2024-02-29T16:55:05.729Z,23.56
2024-02-29T16:57:34.594Z,23.46
2024-02-29T17:00:01.814Z,23.45
2024-02-29T17:02:28.988Z,23.39
2024-02-29T17:04:56.250Z,23.33
2024-02-29T17:07:23.575Z,23.34
2024-02-29T17:09:50.946Z,23.26
2024-02-29T17:12:18.237Z,23.16
2024-02-29T17:14:46.798Z,23.14
2024-02-29T17:17:14.109Z,23.11
2024-02-29T17:19:41.349Z,23.01
2024-02-29T17:22:08.592Z,23.01
2024-02-29T17:24:35.851Z,22.92
2024-02-29T17:27:03.145Z,22.89
2024-02-29T17:29:30.383Z,22.84
2024-02-29T17:31:58.957Z,22.83
2024-02-29T17:34:26.240Z,22.81
2024-02-29T17:36:53.526Z,22.81
2024-02-29T17:39:20.738Z,22.84
2024-02-29T17:41:47.958Z,22.81
2024-02-29T17:44:15.149Z,22.81
2024-02-29T17:46:43.257Z,22.84
2024-02-29T17:49:11.974Z,22.79
2024-02-29T17:51:44.085Z,22.79
2024-02-29T17:54:11.346Z,22.69
2024-02-29T17:56:38.790Z,22.73
2024-02-29T17:59:05.983Z,22.70
2024-02-29T18:01:33.275Z,22.66
2024-02-29T18:04:00.544Z,22.63
2024-02-29T18:06:29.100Z,22.56
2024-02-29T18:08:56.293Z,22.56
2024-02-29T18:11:23.523Z,22.54
2024-02-29T18:13:50.843Z,22.54
2024-02-29T18:16:18.048Z,22.53
2024-02-29T18:18:45.349Z,22.52
2024-02-29T18:21:12.558Z,22.54
2024-02-29T18:23:41.122Z,22.49
2024-02-29T18:26:08.549Z,22.46
2024-02-29T18:28:35.761Z,22.44
2024-02-29T18:31:03.006Z,22.42
2024-02-29T18:33:30.272Z,22.40
2024-02-29T18:35:57.593Z,22.34
2024-02-29T18:38:24.764Z,22.40
2024-02-29T18:40:53.335Z,22.41
2024-02-29T18:43:20.634Z,22.44
2024-02-29T18:45:57.055Z,22.46
2024-02-29T18:48:30.113Z,22.40
2024-02-29T18:50:57.263Z,22.46
2024-02-29T18:53:24.441Z,22.42
2024-02-29T18:55:52.993Z,22.44
2024-02-29T18:58:20.241Z,22.41
2024-02-29T19:00:47.570Z,22.41
2024-02-29T19:03:14.832Z,22.39
2024-02-29T19:05:42.051Z,22.38
2024-02-29T19:08:09.230Z,22.34
2024-02-29T19:10:36.459Z,22.35
2024-02-29T19:13:05.149Z,22.34
2024-02-29T19:15:32.378Z,22.34
2024-02-29T19:17:59.697Z,22.31
2024-02-29T19:20:26.917Z,22.23
2024-02-29T19:22:54.119Z,22.23
2024-02-29T19:25:21.357Z,22.23
2024-02-29T19:27:48.615Z,22.23
2024-02-29T19:30:19.424Z,22.22
2024-02-29T19:32:47.330Z,22.21
2024-02-29T19:35:14.737Z,22.22
2024-02-29T19:37:41.939Z,22.17
2024-02-29T19:40:09.837Z,22.26
2024-02-29T19:42:37.047Z,22.26
2024-02-29T19:45:05.090Z,22.28
2024-02-29T19:47:33.753Z,22.27
2024-02-29T19:50:00.961Z,22.29
2024-02-29T19:52:28.121Z,22.27
2024-02-29T19:54:55.354Z,22.27
2024-02-29T19:57:22.625Z,22.27
2024-02-29T19:59:49.835Z,22.22
2024-02-29T20:02:17.023Z,22.20
2024-02-29T20:04:45.680Z,22.20
2024-02-29T20:09:40.085Z,22.17
2024-02-29T20:12:07.778Z,22.16
2024-02-29T20:14:34.964Z,22.17
2024-02-29T20:17:02.196Z,22.16
2024-02-29T20:19:30.928Z,22.08
2024-02-29T20:21:59.769Z,22.10
2024-02-29T20:24:26.985Z,22.09
2024-02-29T20:26:54.193Z,22.10
2024-02-29T20:29:21.411Z,22.07
2024-02-29T20:31:48.921Z,22.06
2024-02-29T20:34:16.177Z,22.08
2024-02-29T20:36:43.471Z,22.06
2024-02-29T20:39:12.065Z,22.12
2024-02-29T20:41:39.250Z,22.13
2024-02-29T20:44:06.443Z,22.14
2024-02-29T20:46:33.754Z,22.09
2024-02-29T20:49:01.031Z,22.09
2024-02-29T20:51:28.244Z,22.10
2024-02-29T20:53:55.458Z,22.12
2024-02-29T20:56:24.011Z,22.12
2024-02-29T20:58:51.224Z,22.09
2024-02-29T21:01:18.560Z,22.12
2024-02-29T21:03:45.815Z,22.09
2024-02-29T21:06:13.202Z,22.09
2024-02-29T21:08:40.612Z,22.07
2024-02-29T21:11:07.787Z,22.07
2024-02-29T21:13:36.389Z,22.04
2024-02-29T21:16:04.198Z,22.01
2024-02-29T21:18:31.534Z,21.95
2024-02-29T21:20:58.760Z,21.97
2024-02-29T21:23:26.039Z,21.98
2024-02-29T21:25:53.244Z,21.96
2024-02-29T21:28:20.613Z,21.97
2024-02-29T21:30:49.375Z,21.97
2024-02-29T21:33:16.911Z,21.98
2024-02-29T21:35:44.304Z,21.99
2024-02-29T21:38:11.495Z,22.00
2024-02-29T21:40:38.721Z,22.01
2024-02-29T21:43:05.985Z,22.03
2024-02-29T21:45:33.200Z,22.05
2024-02-29T21:48:01.778Z,22.02
2024-02-29T21:50:29.004Z,21.97
2024-02-29T21:52:56.250Z,22.01
2024-02-29T21:55:23.490Z,21.99
2024-02-29T21:57:50.701Z,22.00
2024-02-29T22:00:18.285Z,21.98
2024-02-29T22:02:45.439Z,21.99
2024-02-29T22:05:14.356Z,21.97
2024-02-29T22:07:41.746Z,21.98
2024-02-29T22:10:09.157Z,21.96
2024-02-29T22:12:37.645Z,21.94
2024-02-29T22:15:05.937Z,21.89
2024-02-29T22:17:33.137Z,21.85
2024-02-29T22:20:00.392Z,21.85
2024-02-29T22:22:29.160Z,21.81
2024-02-29T22:24:57.291Z,21.85
2024-02-29T22:27:24.541Z,21.89
2024-02-29T22:29:51.728Z,21.90
2024-02-29T22:32:18.892Z,21.89
2024-02-29T22:34:46.103Z,21.82
2024-02-29T22:37:14.903Z,21.93
2024-02-29T22:39:44.491Z,21.96
2024-02-29T22:42:11.670Z,21.95
2024-02-29T22:44:38.881Z,21.93
2024-02-29T22:47:06.361Z,21.93
2024-02-29T22:49:33.630Z,21.92
2024-02-29T22:52:00.884Z,21.92
2024-02-29T22:54:28.131Z,21.90
2024-02-29T22:56:56.708Z,21.91
2024-02-29T22:59:23.893Z,21.90
2024-02-29T23:01:51.161Z,21.88
2024-02-29T23:04:18.578Z,21.89
2024-02-29T23:06:46.391Z,21.78
2024-02-29T23:09:13.811Z,21.83
2024-02-29T23:11:41.329Z,21.75
2024-02-29T23:14:09.967Z,21.81
2024-02-29T23:16:37.199Z,21.79
2024-02-29T23:19:04.589Z,21.81
2024-02-29T23:21:31.934Z,21.79
2024-02-29T23:23:59.124Z,21.80
2024-02-29T23:26:26.305Z,21.79
2024-02-29T23:28:53.616Z,21.81
2024-02-29T23:31:22.191Z,21.80
2024-02-29T23:33:49.486Z,21.81
2024-02-29T23:36:16.851Z,21.82
2024-02-29T23:38:44.046Z,21.86
2024-02-29T23:41:11.277Z,21.88
2024-02-29T23:43:38.478Z,21.85
2024-02-29T23:46:05.746Z,21.81
2024-02-29T23:48:34.299Z,21.83
2024-02-29T23:51:01.501Z,21.79
2024-02-29T23:53:28.680Z,21.74
2024-02-29T23:55:55.858Z,21.78
2024-02-29T23:58:23.089Z,21.78
